Time;durP1;ratioP1;P1;durP2;ratioP2;P2;SDS_P1;SDS_P2;PMS_P1;PMS_P2;Temp;Humidity;BMP_temperature;BMP_pressure;BME280_temperature;BME280_humidity;BME280_pressure;Samples;Min_cycle;Max_cycle;Signal;HPM_P1;HPM_P2
2021/09/09 01:50:17;;;;;;;5.38;1.90;;;18.70;53.00;;;;;;4110356;27;20449;-55
2021/09/09 01:52:19;;;;;;;2.78;1.40;;;18.70;53.40;;;;;;4187625;28;20090;-57
2021/09/09 01:54:22;;;;;;;6.35;1.42;;;18.70;53.70;;;;;;4198508;28;20147;-56
2021/09/09 01:56:24;;;;;;;3.92;1.85;;;18.70;54.00;;;;;;4178009;28;20052;-54
2021/09/09 01:58:26;;;;;;;2.25;1.40;;;18.70;53.70;;;;;;4176269;28;20052;-56
2021/09/09 02:00:28;;;;;;;2.58;1.75;;;18.80;53.80;;;;;;4175469;28;20055;-55
2021/09/09 02:02:30;;;;;;;2.65;1.60;;;18.80;53.70;;;;;;4172552;28;20059;-56
2021/09/09 02:04:33;;;;;;;2.58;1.33;;;18.80;53.70;;;;;;4160458;28;20685;-59
2021/09/09 02:06:35;;;;;;;2.33;1.35;;;18.80;53.40;;;;;;4174329;28;20075;-60
2021/09/09 02:08:37;;;;;;;1.25;1.08;;;18.80;53.10;;;;;;4173337;28;20056;-59
2021/09/09 02:10:39;;;;;;;2.92;1.52;;;18.90;53.00;;;;;;4174124;28;20044;-59
2021/09/09 02:12:41;;;;;;;3.70;1.10;;;18.90;52.80;;;;;;4173700;28;21157;-59
2021/09/09 02:14:43;;;;;;;1.83;1.50;;;18.90;52.80;;;;;;4179123;28;20139;-59
2021/09/09 02:16:46;;;;;;;3.60;1.70;;;18.90;52.60;;;;;;4175392;28;20125;-59
2021/09/09 02:18:48;;;;;;;1.52;1.42;;;18.90;52.30;;;;;;4175533;28;20189;-58
2021/09/09 02:20:50;;;;;;;1.88;1.33;;;18.90;52.10;;;;;;4174591;28;20111;-57
2021/09/09 02:22:52;;;;;;;2.05;1.35;;;18.90;52.20;;;;;;4178878;28;20044;-57
2021/09/09 02:24:54;;;;;;;2.05;1.35;;;18.90;52.10;;;;;;4178218;28;20044;-55
2021/09/09 02:26:56;;;;;;;2.47;1.60;;;18.90;52.00;;;;;;4174293;28;20036;-58
2021/09/09 02:28:58;;;;;;;1.90;1.40;;;18.90;51.60;;;;;;4176825;28;20052;-58
2021/09/09 02:31:01;;;;;;;2.45;1.40;;;18.90;51.80;;;;;;4176664;28;20048;-56
2021/09/09 02:33:03;;;;;;;1.63;1.23;;;18.90;51.60;;;;;;4178991;28;20238;-54
2021/09/09 02:35:06;;;;;;;1.63;1.10;;;18.90;51.70;;;;;;4178625;28;20086;-58
2021/09/09 02:37:09;;;;;;;2.25;1.33;;;19.00;51.80;;;;;;4175869;28;20052;-57
2021/09/09 02:39:11;;;;;;;2.03;1.40;;;19.00;51.70;;;;;;4175252;28;20080;-56
2021/09/09 02:41:13;;;;;;;1.63;1.40;;;19.00;51.50;;;;;;4178512;28;20058;-57
2021/09/09 02:43:15;;;;;;;1.33;1.10;;;19.00;51.70;;;;;;4174845;28;20044;-57
2021/09/09 02:45:17;;;;;;;3.10;1.50;;;19.00;51.60;;;;;;4180653;28;20175;-56
2021/09/09 02:47:19;;;;;;;2.80;1.30;;;19.00;51.00;;;;;;4173659;28;20112;-58
2021/09/09 02:49:22;;;;;;;2.53;1.40;;;19.00;51.40;;;;;;4180365;28;20064;-57
2021/09/09 02:51:24;;;;;;;2.13;1.30;;;19.00;51.20;;;;;;4175818;28;20833;-59
2021/09/09 02:53:26;;;;;;;2.38;1.50;;;19.00;51.20;;;;;;4176927;28;20871;-58
2021/09/09 02:55:28;;;;;;;1.77;1.20;;;19.10;51.00;;;;;;4179550;28;21172;-57
2021/09/09 02:57:30;;;;;;;2.67;1.38;;;19.10;51.10;;;;;;4176812;28;20289;-57
2021/09/09 02:59:32;;;;;;;1.92;1.40;;;19.10;51.00;;;;;;4175585;28;20084;-58
2021/09/09 03:01:34;;;;;;;3.72;1.52;;;19.10;50.70;;;;;;4166694;28;20056;-54
2021/09/09 03:03:36;;;;;;;2.25;1.17;;;19.10;50.80;;;;;;4163814;28;20056;-58
2021/09/09 03:05:39;;;;;;;1.92;1.48;;;19.10;51.30;;;;;;4168915;28;20072;-57
2021/09/09 03:07:41;;;;;;;2.13;1.30;;;19.10;50.40;;;;;;4167546;28;20058;-58
2021/09/09 03:09:44;;;;;;;1.80;1.47;;;19.10;50.30;;;;;;4166975;28;20082;-57
2021/09/09 03:11:46;;;;;;;1.58;1.30;;;19.10;50.20;;;;;;4171919;28;20382;-57
2021/09/09 03:13:48;;;;;;;2.08;1.40;;;19.10;50.30;;;;;;4168157;28;20048;-58
2021/09/09 03:15:50;;;;;;;1.75;1.20;;;19.20;50.30;;;;;;4172172;28;20048;-57
2021/09/09 03:17:52;;;;;;;1.90;1.30;;;19.20;50.20;;;;;;4168419;28;20113;-55
2021/09/09 03:19:54;;;;;;;1.58;1.27;;;19.20;50.40;;;;;;4176265;28;20097;-57
2021/09/09 03:21:57;;;;;;;1.70;1.30;;;19.20;50.30;;;;;;4175104;28;20902;-57
2021/09/09 03:23:59;;;;;;;2.03;1.40;;;19.20;50.10;;;;;;4176736;28;20059;-59
2021/09/09 03:26:01;;;;;;;2.30;1.30;;;19.30;50.10;;;;;;4172241;28;20052;-57
2021/09/09 03:28:03;;;;;;;1.60;1.17;;;19.30;50.10;;;;;;4169521;28;20053;-57
2021/09/09 03:30:07;;;;;;;1.85;1.25;;;19.30;50.20;;;;;;4169524;28;20086;-57
2021/09/09 03:32:09;;;;;;;2.60;1.30;;;19.40;50.00;;;;;;4168643;28;20078;-56
2021/09/09 03:34:11;;;;;;;2.83;1.50;;;19.40;49.60;;;;;;4174636;28;20048;-56
2021/09/09 03:36:14;;;;;;;1.48;1.17;;;19.40;49.50;;;;;;4172680;28;20072;-58
2021/09/09 03:38:16;;;;;;;1.98;1.52;;;19.50;49.40;;;;;;4173968;28;20072;-56
2021/09/09 03:40:18;;;;;;;2.35;1.30;;;19.50;48.90;;;;;;4171940;28;20035;-58
2021/09/09 03:42:21;;;;;;;1.95;1.50;;;19.50;49.00;;;;;;4177181;28;20059;-55
2021/09/09 03:44:23;;;;;;;3.03;1.50;;;19.60;48.70;;;;;;4167346;28;20915;-59
2021/09/09 03:46:25;;;;;;;2.00;1.40;;;19.60;48.80;;;;;;4171350;28;20056;-58
2021/09/09 03:48:27;;;;;;;1.77;1.38;;;19.60;48.40;;;;;;4167056;28;20125;-58
2021/09/09 03:50:29;;;;;;;1.42;1.10;;;19.70;48.60;;;;;;4169812;28;20048;-58
2021/09/09 03:52:31;;;;;;;3.08;1.50;;;19.70;48.50;;;;;;4168281;28;20082;-58
2021/09/09 03:54:36;;;;;;;2.55;1.60;;;19.70;48.60;;;;;;4165100;28;20052;-54
2021/09/09 03:56:38;;;;;;;2.20;1.48;;;19.80;48.40;;;;;;4157966;28;20055;-58
2021/09/09 03:58:40;;;;;;;1.58;1.40;;;;;;;;;;4162128;28;20903;-56
2021/09/09 04:00:42;;;;;;;1.35;1.10;;;;;;;;;;4161478;28;20212;-58
2021/09/09 04:02:45;;;;;;;1.70;1.00;;;;;;;;;;4161471;28;20057;-57
2021/09/09 04:04:47;;;;;;;2.25;1.23;;;;;;;;;;4164220;28;20139;-54
2021/09/09 04:06:49;;;;;;;2.67;1.60;;;;;;;;;;4164113;28;20136;-58
2021/09/09 04:08:51;;;;;;;3.10;1.50;;;19.80;48.50;;;;;;4161987;28;20861;-58
2021/09/09 04:10:53;;;;;;;2.30;1.50;;;20.20;48.10;;;;;;4165982;28;20060;-55
2021/09/09 04:12:55;;;;;;;2.65;1.50;;;20.20;47.50;;;;;;4161180;28;20053;-57
2021/09/09 04:14:58;;;;;;;2.30;1.40;;;;;;;;;;4154728;28;20052;-56
2021/09/09 04:17:00;;;;;;;3.92;1.60;;;;;;;;;;4165300;28;20170;-58
2021/09/09 04:19:02;;;;;;;1.98;1.30;;;20.30;47.80;;;;;;4161311;28;20166;-57
2021/09/09 04:21:05;;;;;;;4.00;1.63;;;20.50;49.50;;;;;;4165636;28;20063;-59
2021/09/09 04:23:07;;;;;;;2.65;1.35;;;20.70;49.70;;;;;;4159874;28;20889;-56
2021/09/09 04:25:10;;;;;;;3.40;1.58;;;20.80;50.00;;;;;;4162181;28;20149;-57
2021/09/09 04:27:12;;;;;;;2.90;1.58;;;20.80;50.00;;;;;;4163812;28;20044;-52
2021/09/09 04:29:14;;;;;;;1.83;1.15;;;20.90;50.20;;;;;;4161603;28;20555;-55
2021/09/09 04:31:17;;;;;;;4.18;1.30;;;21.10;50.30;;;;;;4165905;28;20052;-58
2021/09/09 04:33:20;;;;;;;2.50;1.33;;;21.10;50.20;;;;;;4163327;28;20140;-58
2021/09/09 04:35:22;;;;;;;1.45;1.23;;;21.20;50.30;;;;;;4167039;28;21329;-58
2021/09/09 04:37:24;;;;;;;2.35;1.10;;;21.30;50.90;;;;;;4162668;28;20660;-58
2021/09/09 04:39:26;;;;;;;2.35;1.48;;;21.30;51.00;;;;;;4166197;28;20045;-58
2021/09/09 04:41:29;;;;;;;3.40;1.50;;;21.30;51.00;;;;;;4166306;28;20056;-58
2021/09/09 04:43:31;;;;;;;2.70;1.33;;;21.30;51.10;;;;;;4167163;28;20064;-58
2021/09/09 04:45:34;;;;;;;2.45;1.38;;;21.30;51.10;;;;;;4162768;28;20052;-58
2021/09/09 04:47:36;;;;;;;2.55;1.25;;;21.30;51.40;;;;;;4160077;28;20181;-58
2021/09/09 04:49:38;;;;;;;1.63;1.10;;;21.40;51.40;;;;;;4163903;28;20076;-57
2021/09/09 04:51:41;;;;;;;3.55;1.20;;;21.40;51.40;;;;;;4165112;28;20060;-57
2021/09/09 04:53:43;;;;;;;3.05;1.20;;;21.50;51.50;;;;;;4163492;28;20086;-59
2021/09/09 04:55:45;;;;;;;6.97;1.45;;;21.50;51.60;;;;;;4164288;28;20576;-58
2021/09/09 04:57:47;;;;;;;2.90;1.35;;;21.50;51.50;;;;;;4159297;28;20056;-59
2021/09/09 04:59:49;;;;;;;4.65;1.23;;;21.60;51.60;;;;;;4158673;28;20163;-58
2021/09/09 05:01:52;;;;;;;1.65;1.20;;;21.70;51.40;;;;;;4160550;28;20144;-58
2021/09/09 05:03:54;;;;;;;1.40;1.05;;;21.70;51.40;;;;;;4156217;28;20052;-57
2021/09/09 05:05:57;;;;;;;1.65;1.23;;;21.80;51.50;;;;;;4157943;28;20060;-58
2021/09/09 05:07:59;;;;;;;3.75;1.38;;;21.80;51.50;;;;;;4161347;28;20113;-57
2021/09/09 05:10:03;;;;;;;2.23;1.10;;;21.90;51.70;;;;;;4161934;28;20048;-58
2021/09/09 05:12:06;;;;;;;3.25;1.00;;;21.90;51.60;;;;;;4158012;28;20301;-57
2021/09/09 05:14:08;;;;;;;2.35;1.30;;;22.00;51.80;;;;;;4163042;28;20059;-57
2021/09/09 05:16:10;;;;;;;2.67;0.85;;;22.10;51.60;;;;;;4162855;28;20049;-58
2021/09/09 05:18:13;;;;;;;3.95;1.40;;;22.10;51.30;;;;;;4163117;28;20133;-58
2021/09/09 05:20:15;;;;;;;1.75;1.23;;;22.20;51.30;;;;;;4162818;28;20044;-57
2021/09/09 05:22:17;;;;;;;1.42;1.13;;;22.20;51.10;;;;;;4161321;28;20060;-56
2021/09/09 05:24:19;;;;;;;2.03;1.40;;;22.30;51.20;;;;;;4159003;28;20044;-59
2021/09/09 05:26:22;;;;;;;6.80;1.77;;;22.30;51.00;;;;;;4164542;28;20511;-61
2021/09/09 05:28:26;;;;;;;1.65;1.20;;;22.40;50.50;;;;;;4161873;28;20045;-59
2021/09/09 05:30:29;;;;;;;2.72;1.20;;;22.40;50.40;;;;;;4163707;28;20139;-59
2021/09/09 05:32:33;;;;;;;1.55;1.23;;;22.40;50.40;;;;;;4164183;28;20072;-62
2021/09/09 05:34:35;;;;;;;3.75;1.40;;;22.50;50.40;;;;;;4161887;28;20063;-60
2021/09/09 05:36:37;;;;;;;2.45;1.30;;;22.50;50.40;;;;;;4159262;28;20633;-60
2021/09/09 05:38:39;;;;;;;4.40;1.20;;;22.60;50.40;;;;;;4163380;28;20170;-59
2021/09/09 05:40:41;;;;;;;1.38;1.17;;;22.60;50.30;;;;;;4159329;28;20060;-59
2021/09/09 05:42:44;;;;;;;3.28;1.48;;;22.60;50.20;;;;;;4161423;28;20068;-58
2021/09/09 05:44:46;;;;;;;3.33;0.90;;;22.70;50.00;;;;;;4162463;28;20086;-58
2021/09/09 05:46:48;;;;;;;2.45;1.30;;;22.70;49.90;;;;;;4162034;28;20049;-58
2021/09/09 05:48:50;;;;;;;1.42;1.10;;;22.70;49.90;;;;;;4163430;28;20060;-59
2021/09/09 05:50:53;;;;;;;1.80;1.35;;;22.70;50.00;;;;;;4159739;28;20139;-59
2021/09/09 05:52:55;;;;;;;2.28;1.17;;;22.80;49.80;;;;;;4162192;28;20054;-58
2021/09/09 05:54:57;;;;;;;1.33;1.10;;;22.80;49.10;;;;;;4163271;28;20044;-58
2021/09/09 05:57:00;;;;;;;4.45;1.55;;;22.80;49.40;;;;;;4164118;28;20158;-60
2021/09/09 05:59:02;;;;;;;1.63;1.30;;;22.90;49.30;;;;;;4169826;28;20037;-59
2021/09/09 06:01:06;;;;;;;1.63;1.13;;;22.90;49.20;;;;;;4169112;28;20107;-60
2021/09/09 06:03:08;;;;;;;2.92;1.13;;;22.90;49.10;;;;;;4167596;28;20071;-61
2021/09/09 06:05:14;;;;;;;4.25;1.40;;;22.90;49.20;;;;;;4166034;28;20174;-60
2021/09/09 06:07:16;;;;;;;2.28;1.02;;;22.90;49.20;;;;;;4167342;28;20704;-59
2021/09/09 06:09:18;;;;;;;2.08;1.13;;;22.90;49.20;;;;;;4167816;28;20910;-59
2021/09/09 06:11:20;;;;;;;1.70;1.05;;;22.90;49.30;;;;;;4159411;28;20175;-60
2021/09/09 06:13:23;;;;;;;2.05;1.33;;;22.90;49.40;;;;;;4161618;28;20114;-60
2021/09/09 06:15:25;;;;;;;1.73;1.35;;;22.90;49.50;;;;;;4162324;28;20056;-60
2021/09/09 06:17:28;;;;;;;3.50;1.37;;;22.90;49.60;;;;;;4157069;28;20064;-59
2021/09/09 06:19:30;;;;;;;3.33;1.20;;;23.00;49.60;;;;;;4176624;28;20050;-60
2021/09/09 06:21:32;;;;;;;1.50;1.10;;;23.00;49.50;;;;;;4157465;28;20056;-60
2021/09/09 06:23:34;;;;;;;1.48;1.38;;;23.00;49.50;;;;;;4158880;28;20084;-61
2021/09/09 06:25:36;;;;;;;1.05;0.73;;;23.00;49.30;;;;;;4159378;28;20159;-61
2021/09/09 06:27:39;;;;;;;2.78;1.33;;;23.00;49.20;;;;;;4160458;28;20155;-60
2021/09/09 06:29:41;;;;;;;1.77;1.23;;;23.00;49.30;;;;;;4159963;28;20072;-60
2021/09/09 06:31:43;;;;;;;1.90;1.13;;;23.00;49.40;;;;;;4158482;28;20381;-62
2021/09/09 06:33:45;;;;;;;1.58;1.15;;;23.00;49.50;;;;;;4164293;28;20056;-60
2021/09/09 06:35:47;;;;;;;2.08;1.17;;;23.10;49.40;;;;;;4150391;28;20072;-60
2021/09/09 06:37:50;;;;;;;2.58;1.35;;;23.10;50.00;;;;;;4166021;28;20059;-60
2021/09/09 06:39:52;;;;;;;2.63;1.45;;;23.10;50.20;;;;;;4164731;28;20040;-59
2021/09/09 06:41:54;;;;;;;2.72;1.20;;;23.20;50.10;;;;;;4163011;28;20136;-60
2021/09/09 06:43:56;;;;;;;1.20;1.10;;;23.20;50.10;;;;;;4164664;28;20854;-60
2021/09/09 06:45:58;;;;;;;3.38;1.30;;;23.20;50.00;;;;;;4165325;28;20110;-61
2021/09/09 06:48:00;;;;;;;1.52;1.00;;;23.20;50.20;;;;;;4156228;28;20059;-60
2021/09/09 06:50:03;;;;;;;1.80;1.27;;;23.30;50.20;;;;;;4165322;28;20060;-60
2021/09/09 06:52:06;;;;;;;2.67;1.10;;;23.30;50.30;;;;;;4162091;28;20064;-61
2021/09/09 06:54:09;;;;;;;2.25;1.02;;;23.30;50.40;;;;;;4166056;28;20064;-60
2021/09/09 06:56:11;;;;;;;2.15;1.10;;;23.30;50.40;;;;;;4164619;28;20048;-60
2021/09/09 06:58:13;;;;;;;2.08;1.30;;;23.40;50.50;;;;;;4163213;28;20064;-60
2021/09/09 07:00:15;;;;;;;2.35;1.10;;;23.40;50.40;;;;;;4162626;28;20082;-60
2021/09/09 07:02:18;;;;;;;1.20;0.90;;;23.40;50.60;;;;;;4159585;28;20087;-59
2021/09/09 07:04:20;;;;;;;2.63;1.00;;;23.40;50.60;;;;;;4159545;28;20190;-59
2021/09/09 07:06:22;;;;;;;1.73;1.10;;;23.40;50.60;;;;;;4161448;28;20553;-60
2021/09/09 07:08:24;;;;;;;2.42;1.10;;;23.50;50.70;;;;;;4163299;28;20060;-59
2021/09/09 07:10:27;;;;;;;1.80;1.30;;;23.50;50.70;;;;;;4160648;28;20680;-59
2021/09/09 07:12:29;;;;;;;1.67;1.37;;;23.50;50.00;;;;;;4163947;28;20053;-58
2021/09/09 07:14:31;;;;;;;3.15;1.60;;;23.50;49.70;;;;;;4162362;28;20556;-59
2021/09/09 07:16:33;;;;;;;1.88;1.40;;;23.50;48.70;;;;;;4163671;28;20080;-59
2021/09/09 07:18:35;;;;;;;4.60;1.80;;;23.50;46.70;;;;;;4160154;28;20048;-59
2021/09/09 07:20:37;;;;;;;2.50;1.90;;;23.50;44.70;;;;;;4165486;28;20131;-59
2021/09/09 07:22:39;;;;;;;3.10;1.92;;;23.50;45.00;;;;;;4165185;28;20094;-60
2021/09/09 07:24:42;;;;;;;3.38;2.05;;;23.50;44.50;;;;;;4158739;28;20122;-59
2021/09/09 07:26:48;;;;;;;2.15;1.67;;;23.50;43.80;;;;;;4160673;28;20045;-59
2021/09/09 07:28:50;;;;;;;2.97;1.83;;;23.50;44.10;;;;;;4162716;28;20131;-58
2021/09/09 07:30:52;;;;;;;2.97;1.65;;;23.50;43.40;;;;;;4179209;28;20056;-62
2021/09/09 07:32:54;;;;;;;2.95;1.92;;;23.50;42.80;;;;;;4162567;28;21705;-54
2021/09/09 07:34:56;;;;;;;2.88;1.95;;;23.50;42.50;;;;;;4159904;28;20471;-56
2021/09/09 07:36:59;;;;;;;2.97;1.75;;;23.50;41.70;;;;;;4165818;28;20511;-58
2021/09/09 07:39:01;;;;;;;2.78;1.85;;;23.50;42.20;;;;;;4162697;28;20048;-54
2021/09/09 07:41:04;;;;;;;3.78;1.83;;;23.50;41.90;;;;;;4161372;28;20040;-58
2021/09/09 07:43:07;;;;;;;3.15;2.10;;;23.50;41.50;;;;;;4165558;28;20174;-55
2021/09/09 07:45:10;;;;;;;3.50;1.90;;;23.40;42.10;;;;;;4165198;28;20873;-58
2021/09/09 07:47:12;;;;;;;4.68;2.33;;;23.40;42.80;;;;;;4163672;28;20049;-59
2021/09/09 07:49:15;;;;;;;4.47;2.40;;;23.40;43.50;;;;;;4165192;28;20049;-55
2021/09/09 07:51:18;;;;;;;;;;;23.50;44.20;;;;;;4165388;28;20142;-54
2021/09/09 07:53:21;;;;;;;3.05;2.17;;;23.50;45.10;;;;;;4164010;28;19972;-58
2021/09/09 07:55:23;;;;;;;3.78;2.30;;;23.50;45.50;;;;;;4164017;28;20600;-58
2021/09/09 07:57:25;;;;;;;3.08;1.90;;;23.50;46.40;;;;;;4164904;28;20052;-57
2021/09/09 07:59:27;;;;;;;3.13;2.05;;;23.50;46.00;;;;;;4161816;28;20056;-57
2021/09/09 08:01:29;;;;;;;3.85;1.98;;;23.50;46.40;;;;;;4163820;28;20139;-60
2021/09/09 08:03:31;;;;;;;2.55;1.75;;;23.50;46.40;;;;;;4166982;28;20055;-58
2021/09/09 08:05:33;;;;;;;6.47;2.30;;;23.50;46.80;;;;;;4163137;28;20135;-59
2021/09/09 08:07:40;;;;;;;4.28;2.60;;;23.50;47.00;;;;;;4166566;28;20097;-54
2021/09/09 08:09:42;;;;;;;5.15;3.08;;;23.50;47.20;;;;;;4175122;28;20116;-58
2021/09/09 08:11:44;;;;;;;3.63;2.30;;;23.50;47.50;;;;;;4173858;28;20138;-54
2021/09/09 08:13:51;;;;;;;3.97;2.50;;;23.50;47.70;;;;;;4174218;28;20071;-57
2021/09/09 08:15:53;;;;;;;3.75;2.10;;;23.60;47.80;;;;;;4173077;28;20140;-54
2021/09/09 08:17:55;;;;;;;4.13;2.05;;;23.60;47.80;;;;;;4170180;28;20076;-58
2021/09/09 08:19:58;;;;;;;2.22;2.00;;;23.60;48.10;;;;;;4166976;28;20052;-59
2021/09/09 08:22:00;;;;;;;2.15;1.80;;;23.60;48.40;;;;;;4165129;28;20055;-59
2021/09/09 08:24:03;;;;;;;2.08;1.83;;;23.60;48.50;;;;;;4170289;28;20461;-59
2021/09/09 08:26:05;;;;;;;1.60;1.50;;;23.60;48.50;;;;;;4173127;28;20052;-54
2021/09/09 08:28:07;;;;;;;1.63;1.42;;;23.60;48.50;;;;;;4169533;28;21010;-57
2021/09/09 08:30:09;;;;;;;3.40;1.52;;;23.70;48.60;;;;;;4171673;28;20049;-57
2021/09/09 08:32:12;;;;;;;1.50;1.40;;;23.70;48.70;;;;;;4171963;28;20056;-55
2021/09/09 08:34:14;;;;;;;1.55;1.45;;;23.70;48.70;;;;;;4171144;28;20067;-54
2021/09/09 08:36:18;;;;;;;2.13;1.50;;;23.70;48.80;;;;;;4166490;28;20052;-58
2021/09/09 08:38:20;;;;;;;1.63;1.50;;;23.70;48.80;;;;;;4164180;28;20147;-58
2021/09/09 08:40:23;;;;;;;1.73;1.58;;;23.80;48.80;;;;;;4161920;28;20508;-53
2021/09/09 08:42:25;;;;;;;2.15;1.38;;;23.70;48.80;;;;;;4164098;28;20114;-58
2021/09/09 08:44:28;;;;;;;1.90;1.67;;;23.80;48.80;;;;;;4165939;28;20079;-55
2021/09/09 08:46:30;;;;;;;2.83;1.60;;;23.80;48.70;;;;;;4159170;28;20700;-57
2021/09/09 08:48:32;;;;;;;2.42;1.27;;;23.80;48.60;;;;;;4159688;28;20044;-57
2021/09/09 08:50:35;;;;;;;2.90;1.70;;;23.80;48.30;;;;;;4157694;28;20084;-55
2021/09/09 08:52:38;;;;;;;1.50;1.40;;;23.80;48.30;;;;;;4158698;28;20041;-54
2021/09/09 08:54:40;;;;;;;3.80;1.75;;;23.80;48.20;;;;;;4158651;28;20053;-57
2021/09/09 08:56:42;;;;;;;4.22;1.60;;;23.80;48.20;;;;;;4156787;28;20084;-55
2021/09/09 08:58:45;;;;;;;2.83;1.90;;;23.80;48.20;;;;;;4155250;28;20059;-55
2021/09/09 09:01:05;;;;;;;8.57;2.25;;;23.80;48.20;;;;;;4158870;28;20068;-54
2021/09/09 09:03:08;;;;;;;2.20;1.85;;;23.80;48.10;;;;;;4157508;28;20056;-54
2021/09/09 09:05:10;;;;;;;2.40;1.60;;;23.80;48.10;;;;;;4157810;28;20526;-55
2021/09/09 09:07:12;;;;;;;7.50;2.00;;;23.80;48.10;;;;;;4159278;28;20109;-49
2021/09/09 09:09:14;;;;;;;2.55;1.77;;;23.80;48.10;;;;;;4158407;28;20336;-56
2021/09/09 09:11:22;;;;;;;3.20;1.80;;;23.80;48.10;;;;;;4159595;28;20052;-56
2021/09/09 09:13:34;;;;;;;2.35;1.60;;;23.80;48.10;;;;;;4161291;28;20060;-56
2021/09/09 09:15:36;;;;;;;3.95;2.17;;;23.80;48.10;;;;;;4157583;28;20049;-57
2021/09/09 09:17:57;;;;;;;2.83;1.80;;;23.80;48.10;;;;;;4160832;28;20109;-53
2021/09/09 09:20:12;;;;;;;2.42;1.95;;;23.80;48.10;;;;;;4159357;28;20040;-58
2021/09/09 09:22:15;;;;;;;3.25;2.13;;;23.80;48.10;;;;;;4160676;28;20147;-56
2021/09/09 09:24:19;;;;;;;;;;;23.80;48.10;;;;;;4161100;28;20570;-53
2021/09/09 09:26:21;;;;;;;3.58;1.85;;;23.80;48.10;;;;;;4159468;28;20023;-56
2021/09/09 09:28:48;;;;;;;3.03;1.80;;;23.80;48.20;;;;;;4157681;28;20482;-56
2021/09/09 09:31:05;;;;;;;3.22;2.20;;;23.80;48.10;;;;;;4158129;28;20052;-55
2021/09/09 09:33:07;;;;;;;3.15;1.88;;;23.70;48.20;;;;;;4157914;28;20059;-55
2021/09/09 09:35:17;;;;;;;3.72;2.13;;;23.80;48.20;;;;;;4159903;28;20055;-55
2021/09/09 09:37:22;;;;;;;3.83;1.95;;;23.80;48.40;;;;;;4158768;28;20056;-55
2021/09/09 09:39:25;;;;;;;2.03;1.80;;;23.80;48.30;;;;;;4158360;28;20059;-55
2021/09/09 09:41:29;;;;;;;2.97;2.13;;;23.80;48.20;;;;;;4162127;28;20160;-53
2021/09/09 09:43:31;;;;;;;3.92;2.28;;;23.70;48.20;;;;;;4158686;28;20214;-52
2021/09/09 09:45:34;;;;;;;4.60;2.40;;;23.70;47.80;;;;;;4161515;28;20305;-49
2021/09/09 09:47:36;;;;;;;4.68;2.53;;;23.70;45.80;;;;;;4160457;28;20052;-56
2021/09/09 09:49:47;;;;;;;3.97;2.70;;;23.70;45.70;;;;;;4160827;28;20076;-54
2021/09/09 09:51:50;;;;;;;3.55;2.53;;;23.70;45.90;;;;;;4161728;28;20052;-56
2021/09/09 09:54:12;;;;;;;;;;;23.70;46.30;;;;;;4161514;28;20074;-55
2021/09/09 09:56:35;;;;;;;3.58;2.60;;;23.70;46.50;;;;;;4161960;28;19933;-53
2021/09/09 09:58:37;;;;;;;4.20;2.33;;;23.70;46.80;;;;;;4163272;28;20044;-56
2021/09/09 10:00:39;;;;;;;2.73;2.33;;;23.70;47.00;;;;;;4161823;28;20163;-55
2021/09/09 10:02:43;;;;;;;6.07;2.30;;;23.70;47.10;;;;;;4161986;28;20053;-56
2021/09/09 10:04:49;;;;;;;;;;;23.60;47.30;;;;;;4160623;28;20050;-57
2021/09/09 10:06:52;;;;;;;3.65;2.30;;;23.60;47.40;;;;;;4159329;28;19928;-56
2021/09/09 10:08:55;;;;;;;4.03;2.70;;;23.60;47.40;;;;;;4158247;28;20072;-55
2021/09/09 10:10:57;;;;;;;3.47;2.70;;;23.60;47.50;;;;;;4165075;28;20139;-56
2021/09/09 10:13:00;;;;;;;3.63;2.60;;;23.60;47.50;;;;;;4147830;28;20084;-56
2021/09/09 10:15:04;;;;;;;;;;;23.60;47.70;;;;;;4166866;28;20044;-54
2021/09/09 10:17:06;;;;;;;;;;;23.60;47.70;;;;;;4166813;28;19955;-56
2021/09/09 10:19:32;;;;;;;3.33;2.40;;;23.60;47.80;;;;;;4164842;28;19929;-57
2021/09/09 10:21:44;;;;;;;3.45;2.47;;;23.60;47.80;;;;;;4165652;28;20056;-57
2021/09/09 10:23:46;;;;;;;2.70;2.22;;;23.60;47.80;;;;;;4165350;28;21396;-57
2021/09/09 10:25:49;;;;;;;3.08;2.50;;;23.60;48.50;;;;;;4165543;28;20068;-57
2021/09/09 10:27:51;;;;;;;4.32;2.42;;;23.60;47.90;;;;;;4165451;28;20060;-56
2021/09/09 10:30:03;;;;;;;4.32;2.50;;;23.60;47.90;;;;;;4164913;28;20242;-57
2021/09/09 10:32:06;;;;;;;4.18;2.42;;;23.60;47.90;;;;;;4163495;28;20169;-53
2021/09/09 10:34:20;;;;;;;3.33;2.40;;;23.60;47.90;;;;;;4163722;28;20055;-55
2021/09/09 10:36:43;;;;;;;4.75;2.72;;;23.60;47.90;;;;;;4162386;28;20091;-57
2021/09/09 10:38:46;;;;;;;3.07;2.40;;;23.60;48.00;;;;;;4162527;28;20447;-58
2021/09/09 10:40:48;;;;;;;3.42;2.55;;;23.50;47.90;;;;;;4161345;28;20523;-53
2021/09/09 10:42:50;;;;;;;4.38;2.45;;;23.60;48.00;;;;;;4162322;28;21756;-56
2021/09/09 10:44:53;;;;;;;3.25;2.20;;;23.50;48.20;;;;;;4165548;28;20103;-56
2021/09/09 10:46:55;;;;;;;3.25;2.67;;;23.60;48.20;;;;;;4165928;28;20044;-56
2021/09/09 10:49:19;;;;;;;3.45;2.58;;;23.50;48.20;;;;;;4159994;28;20158;-52
2021/09/09 10:51:21;;;;;;;3.42;2.20;;;23.50;48.40;;;;;;4163475;28;20591;-56
2021/09/09 10:53:44;;;;;;;4.03;2.13;;;23.50;48.30;;;;;;4165986;28;20041;-58
2021/09/09 10:55:49;;;;;;;4.05;2.35;;;23.50;48.20;;;;;;4165426;28;20171;-56
2021/09/09 10:58:20;;;;;;;3.42;2.60;;;23.50;46.70;;;;;;4166595;28;21055;-53
2021/09/09 11:00:51;;;;;;;4.65;2.65;;;23.50;44.10;;;;;;4166326;28;20555;-53
2021/09/09 11:02:53;;;;;;;4.63;2.28;;;23.50;42.90;;;;;;4164062;28;20044;-55
2021/09/09 11:05:05;;;;;;;3.72;2.58;;;23.40;43.10;;;;;;4166422;28;20155;-52
2021/09/09 11:07:21;;;;;;;5.47;2.60;;;23.40;43.30;;;;;;4164741;28;20053;-52
2021/09/09 11:09:25;;;;;;;3.75;2.22;;;23.40;44.30;;;;;;4145650;28;20072;-54
2021/09/09 11:11:31;;;;;;;5.63;2.20;;;23.40;44.20;;;;;;4167049;28;20070;-56
2021/09/09 11:13:36;;;;;;;4.57;2.80;;;23.40;44.80;;;;;;4167133;28;20064;-54
2021/09/09 11:15:38;;;;;;;5.60;2.42;;;23.40;45.00;;;;;;4167146;28;20041;-55
2021/09/09 11:17:41;;;;;;;4.30;2.25;;;23.40;45.40;;;;;;4164436;28;20053;-55
2021/09/09 11:19:43;;;;;;;7.32;2.53;;;23.40;45.50;;;;;;4163250;28;21269;-53
2021/09/09 11:21:46;;;;;;;4.63;2.10;;;23.40;45.90;;;;;;4163957;28;20132;-55
2021/09/09 11:23:50;;;;;;;6.87;2.47;;;23.40;46.00;;;;;;4168006;28;20538;-53
2021/09/09 11:25:53;;;;;;;4.10;2.03;;;23.40;46.30;;;;;;4163720;28;20048;-56
2021/09/09 11:28:17;;;;;;;3.15;1.90;;;23.30;46.40;;;;;;4163909;28;20167;-54
2021/09/09 11:30:19;;;;;;;;;;;23.40;46.70;;;;;;4167167;28;20060;-52
2021/09/09 11:32:21;;;;;;;4.75;2.22;;;23.40;46.80;;;;;;4161102;28;19928;-55
2021/09/09 11:34:32;;;;;;;2.80;2.10;;;23.40;46.90;;;;;;4167461;28;20083;-57
2021/09/09 11:36:40;;;;;;;2.83;1.85;;;23.30;47.00;;;;;;4165141;28;20048;-57
2021/09/09 11:38:43;;;;;;;3.72;2.25;;;23.30;47.20;;;;;;4167091;28;20132;-56
2021/09/09 11:40:45;;;;;;;3.17;2.10;;;23.30;47.20;;;;;;4163492;28;20048;-56
2021/09/09 11:42:48;;;;;;;3.45;2.00;;;23.30;47.30;;;;;;4166473;28;20941;-57
2021/09/09 11:44:59;;;;;;;3.33;2.20;;;23.30;47.50;;;;;;4162505;28;20075;-57
2021/09/09 11:47:14;;;;;;;3.33;2.05;;;23.30;47.60;;;;;;4163079;28;20273;-59
2021/09/09 11:49:17;;;;;;;2.00;1.60;;;23.30;47.70;;;;;;4165612;28;21429;-56
2021/09/09 11:51:36;;;;;;;4.78;2.08;;;23.30;47.90;;;;;;4167295;28;20052;-58
2021/09/09 11:53:38;;;;;;;4.07;2.10;;;23.30;47.90;;;;;;4167363;28;20062;-56
2021/09/09 11:55:40;;;;;;;2.97;2.00;;;23.30;48.00;;;;;;4163241;28;20123;-56
2021/09/09 11:57:44;;;;;;;3.38;1.90;;;23.30;48.20;;;;;;4162386;28;20080;-51
2021/09/09 11:59:52;;;;;;;3.50;1.98;;;23.20;48.20;;;;;;4166988;28;20053;-55
2021/09/09 12:02:08;;;;;;;3.70;2.47;;;23.20;48.30;;;;;;4167030;28;20057;-57
2021/09/09 12:04:12;;;;;;;2.85;1.90;;;23.20;48.40;;;;;;4164688;28;20134;-56
2021/09/09 12:06:17;;;;;;;;;;;23.20;48.40;;;;;;4163126;28;20117;-55
2021/09/09 12:08:20;;;;;;;4.00;2.20;;;23.20;48.40;;;;;;4167049;28;19928;-54
2021/09/09 12:10:23;;;;;;;3.77;2.20;;;23.20;48.40;;;;;;4163972;28;20052;-56
2021/09/09 12:12:33;;;;;;;5.10;2.35;;;23.20;48.50;;;;;;4164439;28;20297;-53
2021/09/09 12:14:40;;;;;;;3.20;2.08;;;23.20;48.50;;;;;;4166634;28;20063;-53
2021/09/09 12:16:42;;;;;;;2.95;2.10;;;23.20;48.50;;;;;;4165079;28;20105;-53
2021/09/09 12:18:46;;;;;;;4.38;2.15;;;23.20;48.60;;;;;;4166592;28;20063;-54
2021/09/09 12:20:49;;;;;;;5.80;2.13;;;23.20;48.50;;;;;;4165232;28;20052;-55
2021/09/09 12:22:53;;;;;;;4.68;2.60;;;23.10;48.40;;;;;;4167208;28;20134;-55
2021/09/09 12:24:55;;;;;;;3.90;2.00;;;23.10;48.50;;;;;;4165792;28;20051;-56
2021/09/09 12:27:04;;;;;;;7.55;2.03;;;23.10;48.60;;;;;;4162525;28;20079;-51
2021/09/09 12:29:17;;;;;;;4.80;1.98;;;23.10;48.60;;;;;;4164971;28;20068;-55
2021/09/09 12:31:39;;;;;;;3.25;2.10;;;23.10;48.60;;;;;;4166544;28;20049;-51
2021/09/09 12:33:53;;;;;;;4.90;2.20;;;23.00;48.60;;;;;;4160919;28;20044;-57
2021/09/09 12:36:06;;;;;;;3.47;1.95;;;23.00;48.60;;;;;;4167455;28;20049;-54
2021/09/09 12:38:12;;;;;;;4.97;1.95;;;23.00;48.70;;;;;;4165978;28;20060;-56